sensor_id;sensor_type;location;lat;lon;timestamp;pressure;altitude;pressure_sealevel;temperature;humidity
50349;BME280;36250;48.740;22.174;2023-04-21T00:00:51;100512.81;;;11.75;51.89
50349;BME280;36250;48.740;22.174;2023-04-21T00:03:18;100510.84;;;11.70;51.72
50349;BME280;36250;48.740;22.174;2023-04-21T00:05:45;100509.63;;;11.66;52.42
50349;BME280;36250;48.740;22.174;2023-04-21T00:08:12;100497.28;;;11.59;52.46
50349;BME280;36250;48.740;22.174;2023-04-21T00:10:38;100496.94;;;11.55;52.85
50349;BME280;36250;48.740;22.174;2023-04-21T00:13:03;100501.25;;;11.51;52.91
50349;BME280;36250;48.740;22.174;2023-04-21T00:15:29;100490.56;;;11.50;53.25
50349;BME280;36250;48.740;22.174;2023-04-21T00:17:54;100491.88;;;11.47;53.29
50349;BME280;36250;48.740;22.174;2023-04-21T00:20:20;100493.81;;;11.47;53.10
50349;BME280;36250;48.740;22.174;2023-04-21T00:22:45;100491.88;;;11.47;52.98
50349;BME280;36250;48.740;22.174;2023-04-21T00:25:11;100486.22;;;11.49;53.32
50349;BME280;36250;48.740;22.174;2023-04-21T00:27:37;100480.75;;;11.49;52.90
50349;BME280;36250;48.740;22.174;2023-04-21T00:30:02;100491.13;;;11.52;53.37
50349;BME280;36250;48.740;22.174;2023-04-21T00:32:28;100488.50;;;11.57;52.94
50349;BME280;36250;48.740;22.174;2023-04-21T00:34:53;100484.03;;;11.67;52.85
50349;BME280;36250;48.740;22.174;2023-04-21T00:37:19;100477.34;;;11.75;53.46
50349;BME280;36250;48.740;22.174;2023-04-21T00:39:44;100478.19;;;11.75;54.30
50349;BME280;36250;48.740;22.174;2023-04-21T00:42:10;100480.06;;;11.75;54.64
50349;BME280;36250;48.740;22.174;2023-04-21T00:44:35;100476.78;;;11.73;54.48
50349;BME280;36250;48.740;22.174;2023-04-21T00:47:00;100479.59;;;11.78;54.24
50349;BME280;36250;48.740;22.174;2023-04-21T00:49:26;100471.47;;;11.83;53.78
50349;BME280;36250;48.740;22.174;2023-04-21T00:51:52;100468.47;;;11.84;54.31
50349;BME280;36250;48.740;22.174;2023-04-21T00:54:18;100464.34;;;11.82;54.64
50349;BME280;36250;48.740;22.174;2023-04-21T00:56:44;100465.38;;;11.76;54.80
50349;BME280;36250;48.740;22.174;2023-04-21T00:59:09;100467.50;;;11.74;55.06
50349;BME280;36250;48.740;22.174;2023-04-21T01:01:35;100464.47;;;11.70;54.46
50349;BME280;36250;48.740;22.174;2023-04-21T01:04:01;100466.38;;;11.70;54.48
50349;BME280;36250;48.740;22.174;2023-04-21T01:06:28;100467.66;;;11.67;54.84
50349;BME280;36250;48.740;22.174;2023-04-21T01:08:54;100472.28;;;11.67;54.75
50349;BME280;36250;48.740;22.174;2023-04-21T01:11:19;100462.41;;;11.61;54.75
50349;BME280;36250;48.740;22.174;2023-04-21T01:13:45;100457.44;;;11.58;55.33
50349;BME280;36250;48.740;22.174;2023-04-21T01:16:16;100460.66;;;11.55;55.39
50349;BME280;36250;48.740;22.174;2023-04-21T01:18:42;100457.78;;;11.45;56.18
50349;BME280;36250;48.740;22.174;2023-04-21T01:21:08;100460.13;;;11.36;56.29
50349;BME280;36250;48.740;22.174;2023-04-21T01:23:33;100458.53;;;11.23;57.10
50349;BME280;36250;48.740;22.174;2023-04-21T01:25:58;100460.44;;;11.23;57.00
50349;BME280;36250;48.740;22.174;2023-04-21T01:28:25;100450.72;;;11.27;57.01
50349;BME280;36250;48.740;22.174;2023-04-21T01:30:51;100453.59;;;11.20;57.62
50349;BME280;36250;48.740;22.174;2023-04-21T01:33:17;100461.59;;;11.10;58.22
50349;BME280;36250;48.740;22.174;2023-04-21T01:35:43;100452.84;;;11.08;57.68
50349;BME280;36250;48.740;22.174;2023-04-21T01:38:08;100459.38;;;11.07;57.70
50349;BME280;36250;48.740;22.174;2023-04-21T01:40:34;100453.31;;;11.05;57.20
50349;BME280;36250;48.740;22.174;2023-04-21T01:43:00;100448.47;;;11.07;57.07
50349;BME280;36250;48.740;22.174;2023-04-21T01:45:25;100448.22;;;11.09;57.09
50349;BME280;36250;48.740;22.174;2023-04-21T01:47:51;100451.28;;;11.12;57.17
50349;BME280;36250;48.740;22.174;2023-04-21T01:50:16;100446.41;;;11.14;57.48
50349;BME280;36250;48.740;22.174;2023-04-21T01:52:42;100445.66;;;11.19;57.63
50349;BME280;36250;48.740;22.174;2023-04-21T01:55:08;100444.09;;;11.23;57.64
50349;BME280;36250;48.740;22.174;2023-04-21T01:57:33;100441.69;;;11.27;57.77
50349;BME280;36250;48.740;22.174;2023-04-21T01:59:59;100437.47;;;11.36;57.31
50349;BME280;36250;48.740;22.174;2023-04-21T02:02:24;100431.03;;;11.42;57.08
50349;BME280;36250;48.740;22.174;2023-04-21T02:04:49;100430.03;;;11.48;57.15
50349;BME280;36250;48.740;22.174;2023-04-21T02:07:15;100431.75;;;11.54;57.37
50349;BME280;36250;48.740;22.174;2023-04-21T02:09:41;100428.50;;;11.57;57.16
50349;BME280;36250;48.740;22.174;2023-04-21T02:12:06;100425.56;;;11.58;57.56
50349;BME280;36250;48.740;22.174;2023-04-21T02:14:32;100426.38;;;11.59;57.07
50349;BME280;36250;48.740;22.174;2023-04-21T02:16:57;100417.69;;;11.62;56.42
50349;BME280;36250;48.740;22.174;2023-04-21T02:19:23;100420.34;;;11.57;56.36
50349;BME280;36250;48.740;22.174;2023-04-21T02:21:48;100417.03;;;11.55;56.65
50349;BME280;36250;48.740;22.174;2023-04-21T02:24:13;100411.34;;;11.56;56.32
50349;BME280;36250;48.740;22.174;2023-04-21T02:26:39;100412.84;;;11.47;57.23
50349;BME280;36250;48.740;22.174;2023-04-21T02:29:04;100411.38;;;11.40;57.48
50349;BME280;36250;48.740;22.174;2023-04-21T02:31:29;100414.19;;;11.28;57.53
50349;BME280;36250;48.740;22.174;2023-04-21T02:33:55;100417.50;;;11.13;57.48
50349;BME280;36250;48.740;22.174;2023-04-21T02:36:20;100418.59;;;11.12;57.41
50349;BME280;36250;48.740;22.174;2023-04-21T02:38:46;100405.63;;;11.19;57.53
50349;BME280;36250;48.740;22.174;2023-04-21T02:41:11;100415.03;;;11.29;57.06
50349;BME280;36250;48.740;22.174;2023-04-21T02:43:36;100411.06;;;11.36;57.13
50349;BME280;36250;48.740;22.174;2023-04-21T02:46:08;100407.09;;;11.44;56.69
50349;BME280;36250;48.740;22.174;2023-04-21T02:48:34;100413.19;;;11.51;56.64
50349;BME280;36250;48.740;22.174;2023-04-21T02:50:59;100405.56;;;11.53;56.54
50349;BME280;36250;48.740;22.174;2023-04-21T02:53:25;100400.59;;;11.50;56.61
50349;BME280;36250;48.740;22.174;2023-04-21T02:55:50;100398.91;;;11.44;57.25
50349;BME280;36250;48.740;22.174;2023-04-21T02:58:15;100402.03;;;11.36;57.94
50349;BME280;36250;48.740;22.174;2023-04-21T03:00:41;100406.84;;;11.29;58.60
50349;BME280;36250;48.740;22.174;2023-04-21T03:03:06;100408.25;;;11.31;58.95
50349;BME280;36250;48.740;22.174;2023-04-21T03:05:31;100405.59;;;11.36;58.64
50349;BME280;36250;48.740;22.174;2023-04-21T03:07:57;100403.44;;;11.38;58.64
50349;BME280;36250;48.740;22.174;2023-04-21T03:10:22;100404.34;;;11.44;58.32
50349;BME280;36250;48.740;22.174;2023-04-21T03:12:48;100410.88;;;11.43;58.98
50349;BME280;36250;48.740;22.174;2023-04-21T03:15:13;100413.03;;;11.41;58.28
50349;BME280;36250;48.740;22.174;2023-04-21T03:17:39;100408.63;;;11.40;58.85
50349;BME280;36250;48.740;22.174;2023-04-21T03:20:05;100403.78;;;11.42;59.54
50349;BME280;36250;48.740;22.174;2023-04-21T03:22:35;100402.13;;;11.41;59.23
50349;BME280;36250;48.740;22.174;2023-04-21T03:25:01;100408.91;;;11.38;58.90
50349;BME280;36250;48.740;22.174;2023-04-21T03:27:26;100405.41;;;11.43;58.78
50349;BME280;36250;48.740;22.174;2023-04-21T03:29:52;100397.81;;;11.45;59.22
50349;BME280;36250;48.740;22.174;2023-04-21T03:32:17;100403.84;;;11.47;59.88
50349;BME280;36250;48.740;22.174;2023-04-21T03:34:42;100407.56;;;11.41;60.26
50349;BME280;36250;48.740;22.174;2023-04-21T03:37:07;100404.69;;;11.31;59.80
50349;BME280;36250;48.740;22.174;2023-04-21T03:39:33;100405.25;;;11.33;59.50
50349;BME280;36250;48.740;22.174;2023-04-21T03:41:58;100407.00;;;11.39;59.49
50349;BME280;36250;48.740;22.174;2023-04-21T03:44:24;100405.69;;;11.41;60.00
50349;BME280;36250;48.740;22.174;2023-04-21T03:46:52;100410.03;;;11.42;59.98
50349;BME280;36250;48.740;22.174;2023-04-21T03:49:18;100414.69;;;11.42;60.31
50349;BME280;36250;48.740;22.174;2023-04-21T03:51:43;100410.78;;;11.38;60.42
50349;BME280;36250;48.740;22.174;2023-04-21T03:54:08;100413.53;;;11.38;60.82
50349;BME280;36250;48.740;22.174;2023-04-21T03:56:34;100424.75;;;11.41;60.55
50349;BME280;36250;48.740;22.174;2023-04-21T03:58:59;100420.22;;;11.47;59.18
50349;BME280;36250;48.740;22.174;2023-04-21T04:01:25;100414.56;;;11.53;57.65
50349;BME280;36250;48.740;22.174;2023-04-21T04:03:50;100415.78;;;11.62;57.50
50349;BME280;36250;48.740;22.174;2023-04-21T04:06:15;100409.09;;;11.70;58.20
50349;BME280;36250;48.740;22.174;2023-04-21T04:08:41;100407.00;;;11.77;57.23
50349;BME280;36250;48.740;22.174;2023-04-21T04:11:06;100408.75;;;11.83;56.60
50349;BME280;36250;48.740;22.174;2023-04-21T04:13:32;100411.47;;;11.83;57.26
50349;BME280;36250;48.740;22.174;2023-04-21T04:15:57;100406.72;;;11.73;58.39
50349;BME280;36250;48.740;22.174;2023-04-21T04:18:23;100414.00;;;11.68;59.56
50349;BME280;36250;48.740;22.174;2023-04-21T04:20:48;100415.97;;;11.56;59.89
50349;BME280;36250;48.740;22.174;2023-04-21T04:23:14;100415.47;;;11.59;60.64
50349;BME280;36250;48.740;22.174;2023-04-21T04:25:39;100417.88;;;11.55;59.84
50349;BME280;36250;48.740;22.174;2023-04-21T04:28:05;100411.50;;;11.50;59.00
50349;BME280;36250;48.740;22.174;2023-04-21T04:30:32;100413.31;;;11.61;59.64
50349;BME280;36250;48.740;22.174;2023-04-21T04:32:57;100421.69;;;11.71;59.76
50349;BME280;36250;48.740;22.174;2023-04-21T04:35:22;100413.88;;;11.79;59.52
50349;BME280;36250;48.740;22.174;2023-04-21T04:37:48;100412.88;;;11.85;57.85
50349;BME280;36250;48.740;22.174;2023-04-21T04:40:14;100417.06;;;11.93;57.78
50349;BME280;36250;48.740;22.174;2023-04-21T04:42:40;100420.16;;;12.02;57.80
50349;BME280;36250;48.740;22.174;2023-04-21T04:45:06;100420.53;;;12.10;57.26
50349;BME280;36250;48.740;22.174;2023-04-21T04:47:35;100429.03;;;12.14;58.67
50349;BME280;36250;48.740;22.174;2023-04-21T04:50:01;100423.28;;;12.10;58.61
50349;BME280;36250;48.740;22.174;2023-04-21T04:52:26;100422.75;;;12.13;59.24
50349;BME280;36250;48.740;22.174;2023-04-21T04:54:51;100426.94;;;11.99;59.95
50349;BME280;36250;48.740;22.174;2023-04-21T04:57:17;100406.25;;;11.81;59.72
50349;BME280;36250;48.740;22.174;2023-04-21T04:59:42;100426.75;;;11.84;59.24
50349;BME280;36250;48.740;22.174;2023-04-21T05:02:07;100427.31;;;11.86;58.44
50349;BME280;36250;48.740;22.174;2023-04-21T05:04:34;100416.22;;;11.93;58.17
50349;BME280;36250;48.740;22.174;2023-04-21T05:06:59;100415.19;;;11.99;57.68
50349;BME280;36250;48.740;22.174;2023-04-21T05:09:25;100422.69;;;12.08;57.73
50349;BME280;36250;48.740;22.174;2023-04-21T05:11:50;100427.69;;;12.16;56.68
50349;BME280;36250;48.740;22.174;2023-04-21T05:14:16;100414.44;;;12.25;56.42
50349;BME280;36250;48.740;22.174;2023-04-21T05:16:44;100418.03;;;12.30;56.43
50349;BME280;36250;48.740;22.174;2023-04-21T05:19:10;100417.56;;;12.38;56.92
50349;BME280;36250;48.740;22.174;2023-04-21T05:21:35;100417.13;;;12.46;56.43
50349;BME280;36250;48.740;22.174;2023-04-21T05:24:01;100410.66;;;12.58;56.86
50349;BME280;36250;48.740;22.174;2023-04-21T05:26:27;100411.38;;;12.75;56.27
50349;BME280;36250;48.740;22.174;2023-04-21T05:28:56;100404.13;;;12.85;55.43
50349;BME280;36250;48.740;22.174;2023-04-21T05:31:23;100411.63;;;13.00;54.45
50349;BME280;36250;48.740;22.174;2023-04-21T05:33:48;100402.78;;;13.20;52.16
50349;BME280;36250;48.740;22.174;2023-04-21T05:36:14;100410.84;;;13.41;50.29
50349;BME280;36250;48.740;22.174;2023-04-21T05:38:40;100406.59;;;13.60;50.61
50349;BME280;36250;48.740;22.174;2023-04-21T05:41:05;100404.47;;;13.72;49.12
50349;BME280;36250;48.740;22.174;2023-04-21T05:43:31;100405.91;;;13.85;48.08
50349;BME280;36250;48.740;22.174;2023-04-21T05:46:00;100402.09;;;13.91;47.37
50349;BME280;36250;48.740;22.174;2023-04-21T05:48:25;100408.41;;;13.97;47.72
50349;BME280;36250;48.740;22.174;2023-04-21T05:50:51;100409.59;;;14.11;48.66
50349;BME280;36250;48.740;22.174;2023-04-21T05:53:16;100400.84;;;14.24;46.82
50349;BME280;36250;48.740;22.174;2023-04-21T05:55:42;100397.63;;;14.32;46.37
50349;BME280;36250;48.740;22.174;2023-04-21T05:58:07;100399.25;;;14.33;46.56
50349;BME280;36250;48.740;22.174;2023-04-21T06:00:33;100393.25;;;14.36;45.82
50349;BME280;36250;48.740;22.174;2023-04-21T06:02:58;100393.25;;;14.41;44.86
50349;BME280;36250;48.740;22.174;2023-04-21T06:05:23;100391.38;;;14.52;45.08
50349;BME280;36250;48.740;22.174;2023-04-21T06:07:49;100393.84;;;14.73;45.49
50349;BME280;36250;48.740;22.174;2023-04-21T06:10:16;100393.88;;;14.98;44.22
50349;BME280;36250;48.740;22.174;2023-04-21T06:12:42;100395.50;;;15.14;43.31
50349;BME280;36250;48.740;22.174;2023-04-21T06:15:08;100394.94;;;15.28;44.40
50349;BME280;36250;48.740;22.174;2023-04-21T06:17:33;100396.56;;;15.39;44.34
50349;BME280;36250;48.740;22.174;2023-04-21T06:19:59;100399.31;;;15.49;45.07
50349;BME280;36250;48.740;22.174;2023-04-21T06:22:24;100389.41;;;15.58;44.26
50349;BME280;36250;48.740;22.174;2023-04-21T06:24:50;100392.97;;;15.68;43.43
50349;BME280;36250;48.740;22.174;2023-04-21T06:27:16;100394.84;;;15.78;43.62
50349;BME280;36250;48.740;22.174;2023-04-21T06:29:42;100389.88;;;15.85;43.53
50349;BME280;36250;48.740;22.174;2023-04-21T06:32:08;100388.25;;;15.89;42.50
50349;BME280;36250;48.740;22.174;2023-04-21T06:34:33;100387.44;;;15.78;42.75
50349;BME280;36250;48.740;22.174;2023-04-21T06:36:59;100391.88;;;15.69;42.38
50349;BME280;36250;48.740;22.174;2023-04-21T06:39:24;100387.78;;;15.57;42.13
50349;BME280;36250;48.740;22.174;2023-04-21T06:41:50;100383.41;;;15.51;43.05
50349;BME280;36250;48.740;22.174;2023-04-21T06:44:15;100387.81;;;15.47;42.34
50349;BME280;36250;48.740;22.174;2023-04-21T06:46:40;100395.75;;;15.48;43.02
50349;BME280;36250;48.740;22.174;2023-04-21T06:49:08;100386.66;;;15.63;41.50
50349;BME280;36250;48.740;22.174;2023-04-21T06:51:34;100386.94;;;15.66;41.14
50349;BME280;36250;48.740;22.174;2023-04-21T06:53:59;100384.94;;;15.82;40.59
50349;BME280;36250;48.740;22.174;2023-04-21T06:56:26;100383.28;;;15.91;41.08
50349;BME280;36250;48.740;22.174;2023-04-21T06:58:51;100378.78;;;16.15;41.18
50349;BME280;36250;48.740;22.174;2023-04-21T07:01:17;100379.19;;;16.37;40.75
50349;BME280;36250;48.740;22.174;2023-04-21T07:03:42;100387.50;;;16.27;39.88
50349;BME280;36250;48.740;22.174;2023-04-21T07:06:08;100381.38;;;16.40;40.83
50349;BME280;36250;48.740;22.174;2023-04-21T07:08:33;100382.13;;;16.56;40.95
50349;BME280;36250;48.740;22.174;2023-04-21T07:10:59;100374.75;;;16.52;40.40
50349;BME280;36250;48.740;22.174;2023-04-21T07:13:24;100378.03;;;16.54;40.38
50349;BME280;36250;48.740;22.174;2023-04-21T07:15:50;100381.56;;;16.59;40.58
50349;BME280;36250;48.740;22.174;2023-04-21T07:18:15;100382.56;;;16.73;41.17
50349;BME280;36250;48.740;22.174;2023-04-21T07:20:41;100372.13;;;16.70;40.46
50349;BME280;36250;48.740;22.174;2023-04-21T07:23:06;100378.41;;;16.76;40.37
50349;BME280;36250;48.740;22.174;2023-04-21T07:25:31;100381.69;;;16.78;39.92
50349;BME280;36250;48.740;22.174;2023-04-21T07:27:57;100373.66;;;16.86;39.18
50349;BME280;36250;48.740;22.174;2023-04-21T07:30:22;100375.50;;;16.96;39.54
50349;BME280;36250;48.740;22.174;2023-04-21T07:32:47;100383.47;;;16.97;38.48
50349;BME280;36250;48.740;22.174;2023-04-21T07:35:13;100375.56;;;16.91;38.19
50349;BME280;36250;48.740;22.174;2023-04-21T07:37:38;100377.16;;;16.97;37.97
50349;BME280;36250;48.740;22.174;2023-04-21T07:40:08;100376.03;;;16.98;39.70
50349;BME280;36250;48.740;22.174;2023-04-21T07:42:34;100369.41;;;17.04;38.83
50349;BME280;36250;48.740;22.174;2023-04-21T07:44:59;100375.03;;;17.18;38.72
50349;BME280;36250;48.740;22.174;2023-04-21T07:47:27;100368.13;;;17.20;37.43
50349;BME280;36250;48.740;22.174;2023-04-21T07:49:52;100362.06;;;17.23;37.99
50349;BME280;36250;48.740;22.174;2023-04-21T07:52:18;100372.97;;;17.33;36.64
50349;BME280;36250;48.740;22.174;2023-04-21T07:54:44;100367.13;;;17.40;36.43
50349;BME280;36250;48.740;22.174;2023-04-21T07:57:09;100369.63;;;17.36;36.92
50349;BME280;36250;48.740;22.174;2023-04-21T07:59:35;100358.50;;;17.46;36.23
50349;BME280;36250;48.740;22.174;2023-04-21T08:02:00;100358.16;;;17.58;37.16
50349;BME280;36250;48.740;22.174;2023-04-21T08:04:26;100353.91;;;17.65;37.59
50349;BME280;36250;48.740;22.174;2023-04-21T08:06:51;100359.25;;;17.81;35.29
50349;BME280;36250;48.740;22.174;2023-04-21T08:09:17;100354.25;;;18.06;34.95
50349;BME280;36250;48.740;22.174;2023-04-21T08:11:42;100360.91;;;18.24;33.69
50349;BME280;36250;48.740;22.174;2023-04-21T08:14:07;100346.28;;;18.42;32.57
50349;BME280;36250;48.740;22.174;2023-04-21T08:16:36;100345.56;;;18.55;31.48
50349;BME280;36250;48.740;22.174;2023-04-21T08:19:02;100342.81;;;18.55;32.63
50349;BME280;36250;48.740;22.174;2023-04-21T08:21:27;100350.94;;;18.65;30.23
50349;BME280;36250;48.740;22.174;2023-04-21T08:23:53;100339.28;;;18.68;29.24
50349;BME280;36250;48.740;22.174;2023-04-21T08:26:21;100338.41;;;18.35;29.19
50349;BME280;36250;48.740;22.174;2023-04-21T08:28:46;100352.25;;;18.30;30.04
50349;BME280;36250;48.740;22.174;2023-04-21T08:31:15;100336.88;;;18.48;30.57
50349;BME280;36250;48.740;22.174;2023-04-21T08:33:41;100342.38;;;18.48;29.12
50349;BME280;36250;48.740;22.174;2023-04-21T08:36:06;100339.81;;;18.33;30.24
50349;BME280;36250;48.740;22.174;2023-04-21T08:38:32;100335.25;;;18.42;30.27
50349;BME280;36250;48.740;22.174;2023-04-21T08:41:00;100332.06;;;18.35;29.57
50349;BME280;36250;48.740;22.174;2023-04-21T08:43:28;100342.94;;;18.45;29.42
50349;BME280;36250;48.740;22.174;2023-04-21T08:45:53;100333.09;;;18.39;29.66
50349;BME280;36250;48.740;22.174;2023-04-21T08:48:20;100339.59;;;18.67;30.89
50349;BME280;36250;48.740;22.174;2023-04-21T08:50:49;100328.16;;;18.73;30.49
50349;BME280;36250;48.740;22.174;2023-04-21T08:53:15;100316.88;;;18.88;29.02
50349;BME280;36250;48.740;22.174;2023-04-21T08:55:41;100315.50;;;19.05;29.28
50349;BME280;36250;48.740;22.174;2023-04-21T08:58:06;100322.13;;;19.49;29.64
50349;BME280;36250;48.740;22.174;2023-04-21T09:00:36;100312.31;;;19.57;29.49
50349;BME280;36250;48.740;22.174;2023-04-21T09:03:02;100317.09;;;19.24;30.04
50349;BME280;36250;48.740;22.174;2023-04-21T09:05:31;100311.50;;;19.43;30.29
50349;BME280;36250;48.740;22.174;2023-04-21T09:08:09;100296.78;;;19.61;28.87
50349;BME280;36250;48.740;22.174;2023-04-21T09:10:48;100301.19;;;19.76;29.78
50349;BME280;36250;48.740;22.174;2023-04-21T09:13:16;100304.72;;;19.76;27.93
50349;BME280;36250;48.740;22.174;2023-04-21T09:15:44;100302.41;;;19.70;28.36
50349;BME280;36250;48.740;22.174;2023-04-21T09:18:16;100306.16;;;19.87;28.62
50349;BME280;36250;48.740;22.174;2023-04-21T09:20:44;100296.13;;;20.05;27.43
50349;BME280;36250;48.740;22.174;2023-04-21T09:23:10;100296.06;;;20.18;27.62
50349;BME280;36250;48.740;22.174;2023-04-21T09:25:41;100288.69;;;20.27;26.24
50349;BME280;36250;48.740;22.174;2023-04-21T09:28:12;100287.25;;;20.30;27.21
50349;BME280;36250;48.740;22.174;2023-04-21T09:30:39;100283.00;;;20.46;27.68
50349;BME280;36250;48.740;22.174;2023-04-21T09:33:05;100288.97;;;20.62;26.42
50349;BME280;36250;48.740;22.174;2023-04-21T09:35:35;100287.41;;;20.69;25.95
50349;BME280;36250;48.740;22.174;2023-04-21T09:38:02;100273.63;;;20.78;27.13
50349;BME280;36250;48.740;22.174;2023-04-21T09:40:30;100275.94;;;21.07;27.00
50349;BME280;36250;48.740;22.174;2023-04-21T09:42:56;100280.75;;;21.23;25.23
50349;BME280;36250;48.740;22.174;2023-04-21T09:45:25;100273.44;;;21.27;25.20
50349;BME280;36250;48.740;22.174;2023-04-21T09:47:55;100281.25;;;20.72;25.54
50349;BME280;36250;48.740;22.174;2023-04-21T09:50:21;100285.00;;;20.18;25.71
50349;BME280;36250;48.740;22.174;2023-04-21T09:52:51;100281.66;;;19.58;27.63
50349;BME280;36250;48.740;22.174;2023-04-21T09:55:18;100265.97;;;19.54;27.26
50349;BME280;36250;48.740;22.174;2023-04-21T09:57:46;100275.06;;;19.95;28.23
50349;BME280;36250;48.740;22.174;2023-04-21T10:00:12;100268.63;;;20.22;25.88
50349;BME280;36250;48.740;22.174;2023-04-21T10:02:47;100273.13;;;19.82;26.94
50349;BME280;36250;48.740;22.174;2023-04-21T10:05:14;100267.53;;;19.60;27.03
50349;BME280;36250;48.740;22.174;2023-04-21T10:07:39;100260.56;;;19.62;26.12
50349;BME280;36250;48.740;22.174;2023-04-21T10:10:19;100267.13;;;19.53;27.31
50349;BME280;36250;48.740;22.174;2023-04-21T10:12:46;100263.03;;;19.50;27.39
50349;BME280;36250;48.740;22.174;2023-04-21T10:15:32;100262.22;;;19.36;28.78
50349;BME280;36250;48.740;22.174;2023-04-21T10:18:15;100262.22;;;19.50;27.81
50349;BME280;36250;48.740;22.174;2023-04-21T10:20:57;100260.13;;;19.83;28.48
50349;BME280;36250;48.740;22.174;2023-04-21T10:23:29;100259.25;;;20.09;29.50
50349;BME280;36250;48.740;22.174;2023-04-21T10:26:16;100262.13;;;20.04;28.31
50349;BME280;36250;48.740;22.174;2023-04-21T10:34:17;100260.03;;;19.74;25.91
50349;BME280;36250;48.740;22.174;2023-04-21T10:39:24;100258.22;;;19.56;28.04
50349;BME280;36250;48.740;22.174;2023-04-21T10:41:50;100256.97;;;19.62;28.83
50349;BME280;36250;48.740;22.174;2023-04-21T10:44:20;100255.88;;;19.63;27.51
50349;BME280;36250;48.740;22.174;2023-04-21T10:46:46;100250.06;;;19.51;26.86
50349;BME280;36250;48.740;22.174;2023-04-21T10:49:24;100252.50;;;19.39;27.15
50349;BME280;36250;48.740;22.174;2023-04-21T10:57:11;100243.75;;;19.86;27.85
50349;BME280;36250;48.740;22.174;2023-04-21T10:59:37;100234.22;;;20.28;27.34
50349;BME280;36250;48.740;22.174;2023-04-21T11:02:12;100226.88;;;20.68;26.30
50349;BME280;36250;48.740;22.174;2023-04-21T11:04:39;100229.88;;;21.11;25.23
50349;BME280;36250;48.740;22.174;2023-04-21T11:07:13;100226.25;;;21.41;26.22
50349;BME280;36250;48.740;22.174;2023-04-21T11:09:41;100229.41;;;21.56;24.79
50349;BME280;36250;48.740;22.174;2023-04-21T11:12:09;100228.56;;;21.65;24.06
50349;BME280;36250;48.740;22.174;2023-04-21T11:14:36;100223.72;;;21.62;23.84
50349;BME280;36250;48.740;22.174;2023-04-21T11:17:03;100217.00;;;21.63;23.67
50349;BME280;36250;48.740;22.174;2023-04-21T11:19:32;100221.19;;;21.34;23.62
50349;BME280;36250;48.740;22.174;2023-04-21T11:21:57;100222.91;;;20.91;24.13
50349;BME280;36250;48.740;22.174;2023-04-21T11:24:23;100214.03;;;20.50;24.52
50349;BME280;36250;48.740;22.174;2023-04-21T11:26:48;100220.19;;;19.89;23.64
50349;BME280;36250;48.740;22.174;2023-04-21T11:29:14;100212.69;;;19.67;24.08
50349;BME280;36250;48.740;22.174;2023-04-21T11:31:42;100218.53;;;20.01;26.45
50349;BME280;36250;48.740;22.174;2023-04-21T11:34:08;100210.78;;;20.48;25.74
50349;BME280;36250;48.740;22.174;2023-04-21T11:36:39;100209.44;;;20.98;24.64
50349;BME280;36250;48.740;22.174;2023-04-21T11:39:09;100203.75;;;21.42;23.57
50349;BME280;36250;48.740;22.174;2023-04-21T11:41:39;100211.50;;;21.80;22.38
50349;BME280;36250;48.740;22.174;2023-04-21T11:44:08;100213.63;;;21.83;23.50
50349;BME280;36250;48.740;22.174;2023-04-21T11:46:34;100205.81;;;21.76;23.06
50349;BME280;36250;48.740;22.174;2023-04-21T11:49:06;100195.88;;;22.01;21.69
50349;BME280;36250;48.740;22.174;2023-04-21T11:51:36;100194.75;;;22.19;22.70
50349;BME280;36250;48.740;22.174;2023-04-21T11:54:05;100200.22;;;22.70;23.69
50349;BME280;36250;48.740;22.174;2023-04-21T11:56:34;100201.06;;;22.62;22.44
50349;BME280;36250;48.740;22.174;2023-04-21T11:59:05;100202.66;;;22.72;22.42
50349;BME280;36250;48.740;22.174;2023-04-21T12:01:31;100206.81;;;22.06;21.28
50349;BME280;36250;48.740;22.174;2023-04-21T12:03:56;100192.47;;;21.30;22.69
50349;BME280;36250;48.740;22.174;2023-04-21T12:06:25;100191.72;;;20.68;23.45
50349;BME280;36250;48.740;22.174;2023-04-21T12:08:59;100196.56;;;20.63;22.39
50349;BME280;36250;48.740;22.174;2023-04-21T12:11:29;100199.97;;;20.90;21.29
50349;BME280;36250;48.740;22.174;2023-04-21T12:13:58;100189.31;;;21.06;22.74
50349;BME280;36250;48.740;22.174;2023-04-21T12:16:27;100189.78;;;21.65;22.46
50349;BME280;36250;48.740;22.174;2023-04-21T12:18:56;100184.63;;;22.06;23.33
50349;BME280;36250;48.740;22.174;2023-04-21T12:21:31;100190.13;;;22.40;22.10
50349;BME280;36250;48.740;22.174;2023-04-21T12:23:56;100175.38;;;22.82;21.78
50349;BME280;36250;48.740;22.174;2023-04-21T12:26:21;100163.50;;;23.11;20.31
50349;BME280;36250;48.740;22.174;2023-04-21T12:28:49;100170.81;;;22.78;19.76
50349;BME280;36250;48.740;22.174;2023-04-21T12:31:15;100168.50;;;22.08;21.39
50349;BME280;36250;48.740;22.174;2023-04-21T12:33:40;100174.06;;;22.08;21.53
50349;BME280;36250;48.740;22.174;2023-04-21T12:36:06;100168.97;;;22.27;22.29
50349;BME280;36250;48.740;22.174;2023-04-21T12:38:31;100169.38;;;22.55;20.21
50349;BME280;36250;48.740;22.174;2023-04-21T12:40:57;100164.69;;;22.64;20.80
50349;BME280;36250;48.740;22.174;2023-04-21T12:43:22;100156.72;;;22.92;20.41
50349;BME280;36250;48.740;22.174;2023-04-21T12:45:48;100156.63;;;23.17;20.95
50349;BME280;36250;48.740;22.174;2023-04-21T12:48:14;100154.06;;;22.66;20.34
50349;BME280;36250;48.740;22.174;2023-04-21T12:50:39;100157.59;;;21.86;22.20